Ana Sayfa
METAR-TAF:

METAR-TAF

Havaalanları :

Ísafjörður, İzlanda

Enlem: 66-03-29N, Boylam: 23-08-07W, yükseklik: 2 m

Güncel hava durumu gözlemi

Rapor saat 16:47 UTC de 10 saat ve 45 dakika önce yapıldı.
Rüzgar değişken yönden 4 kt
Sıcaklık 1°C
Nem 75%
Basınç 993 hPa
Görüş mesafesi: 7000 m
2500 ft yükseklikte parçalı çok bulutlu
3000 ft yükseklikte çok bulutlu
hafif kar

METAR: BIIS 181647Z VRB04KT 7000 -SN BKN025 OVC030 01/M03 Q0993

Saat: 03:32 (03:32 UTC)

Tahmin

Rapor saat 16:12 UTC de 11 saat ve 20 dakika önce yapıldı.
Ayın 18'si saat 17 UTC'den ayın 19'si saat 02 UTC'ye kadar geçerli Tahmin
Rüzgar doğudan 8 kt
Görüş mesafesi 10 km veya daha fazla
2500 ft yükseklikte parçalı çok bulutlu
4000 ft yükseklikte çok bulutlu
Geçici
ayın 18'si saat 17 UTC'den ayın 19'si saat 02 UTC'ye kadar
Görüş mesafesi: 5000 m
2000 ft yükseklikte çok bulutlu
kar sağanakları

TAF: BIIS 181612Z 1817/1902 10008KT 9999 BKN025 OVC040 TEMPO 1817/1902 5000 SHSN OVC020

4.000'den fazla havaalanı için hava durumu gözlemleri ve tahminleri (METAR ve TAF raporları).

Kullanılabilir istasyonlar harita üzerinde sarı ve kırmızı noktalarla gösterilir.

İstasyonun adını görmek için fareyi noktanın üzerinde gezdirin.

Sonrasında hava gözlem ve tahminlerini görmek için tıklayın.

Haritayı değiştirmek için: yaklaştırmak için siyah artı işaretli yeşil düğmeye ve uzaklaştırmak için de eksi işaretli düğmeye hızla tıklayın; bitişik haritalar için yeşil okları kullanın.


METAR-TAF: